createdAt,value
2023-05-06T00:00:40.353Z,100994.47
2023-05-06T00:03:08.492Z,101014.88
2023-05-06T00:05:36.133Z,101015.31
2023-05-06T00:08:03.399Z,101010.03
2023-05-06T00:10:30.796Z,101013.50
2023-05-06T00:12:58.205Z,101019.34
2023-05-06T00:15:25.800Z,101016.59
2023-05-06T00:17:53.177Z,101018.97
2023-05-06T00:20:20.432Z,101021.44
2023-05-06T00:22:47.964Z,101015.97
2023-05-06T00:25:15.269Z,101020.06
2023-05-06T00:27:42.530Z,101014.94
2023-05-06T00:30:11.099Z,101021.44
2023-05-06T00:32:38.635Z,101013.03
2023-05-06T00:35:06.967Z,101004.25
2023-05-06T00:37:34.625Z,100997.94
2023-05-06T00:40:03.331Z,101003.88
2023-05-06T00:42:30.850Z,100994.91
2023-05-06T00:44:58.147Z,100996.09
2023-05-06T00:47:26.482Z,100993.63
2023-05-06T00:49:53.969Z,100993.34
2023-05-06T00:52:21.336Z,100988.75
2023-05-06T00:54:49.247Z,100987.47
2023-05-06T00:57:16.549Z,100987.47
2023-05-06T00:59:44.497Z,100987.63
2023-05-06T01:02:12.017Z,100979.66
2023-05-06T01:04:41.794Z,100979.66
2023-05-06T01:07:12.535Z,100975.53
2023-05-06T01:09:43.252Z,100972.88
2023-05-06T01:12:20.388Z,100975.75
2023-05-06T01:14:59.915Z,100974.75
2023-05-06T01:17:28.729Z,100975.38
2023-05-06T01:20:02.017Z,100978.84
2023-05-06T01:22:31.578Z,100972.38
2023-05-06T01:24:58.844Z,100977.03
2023-05-06T01:27:26.143Z,100966.41
2023-05-06T01:29:53.407Z,100973.38
2023-05-06T01:32:26.624Z,100970.72
2023-05-06T01:35:00.129Z,100965.03
2023-05-06T01:37:40.577Z,100976.66
2023-05-06T01:40:09.008Z,100974.19
2023-05-06T01:42:38.920Z,100973.53
2023-05-06T01:45:08.812Z,100976.72
2023-05-06T01:47:37.224Z,100972.44
2023-05-06T01:50:05.477Z,100972.44
2023-05-06T01:52:32.849Z,100968.63
2023-05-06T01:55:00.162Z,100978.03
2023-05-06T01:57:28.852Z,100977.19
2023-05-06T01:59:56.130Z,100974.53
2023-05-06T02:02:24.617Z,100971.88
2023-05-06T02:04:53.568Z,100964.75
2023-05-06T02:07:20.857Z,100962.75
2023-05-06T02:09:48.235Z,100960.56
2023-05-06T02:12:15.406Z,100962.38
2023-05-06T02:14:42.586Z,100957.09
2023-05-06T02:17:09.843Z,100964.22
2023-05-06T02:19:37.170Z,100968.91
2023-05-06T02:22:04.358Z,100964.13
2023-05-06T02:24:31.657Z,100963.31
2023-05-06T02:26:58.921Z,100967.28
2023-05-06T02:29:26.136Z,100970.78
2023-05-06T02:31:53.435Z,100971.81
2023-05-06T02:34:20.603Z,100969.50
2023-05-06T02:36:47.807Z,100966.38
2023-05-06T02:39:15.092Z,100974.06
2023-05-06T02:41:42.245Z,100967.09
2023-05-06T02:44:09.880Z,100967.94
2023-05-06T02:46:37.081Z,100959.69
2023-05-06T02:49:04.368Z,100955.56
2023-05-06T02:51:32.250Z,100955.94
2023-05-06T02:53:59.409Z,100953.66
2023-05-06T02:56:27.078Z,100956.84
2023-05-06T02:58:54.336Z,100955.19
2023-05-06T03:01:21.754Z,100947.22
2023-05-06T03:03:49.044Z,100951.03
2023-05-06T03:06:16.276Z,100945.28
2023-05-06T03:08:43.561Z,100944.00
2023-05-06T03:11:10.734Z,100946.16
2023-05-06T03:13:37.895Z,100942.22
2023-05-06T03:16:05.454Z,100935.47
2023-05-06T03:18:32.695Z,100935.66
2023-05-06T03:21:01.681Z,100944.94
2023-05-06T03:23:29.232Z,100934.69
2023-05-06T03:25:56.615Z,100943.66
2023-05-06T03:28:23.847Z,100934.22
2023-05-06T03:30:50.973Z,100937.03
2023-05-06T03:33:18.211Z,100930.59
2023-05-06T03:35:45.551Z,100929.75
2023-05-06T03:38:12.737Z,100933.41
2023-05-06T03:40:40.003Z,100929.47
2023-05-06T03:43:07.139Z,100937.56
2023-05-06T03:45:34.347Z,100932.28
2023-05-06T03:48:01.643Z,100933.94
2023-05-06T03:50:28.854Z,100929.47
2023-05-06T03:52:56.017Z,100926.97
2023-05-06T03:55:23.282Z,100928.00
2023-05-06T03:57:50.433Z,100933.31
2023-05-06T04:00:18.146Z,100926.34
2023-05-06T04:02:45.327Z,100927.19
2023-05-06T04:05:12.684Z,100932.13
2023-05-06T04:07:40.050Z,100925.81
2023-05-06T04:10:08.567Z,100920.06
2023-05-06T04:12:35.769Z,100918.22
2023-05-06T04:15:03.333Z,100922.72
2023-05-06T04:17:30.598Z,100920.88
2023-05-06T04:19:58.225Z,100914.94
2023-05-06T04:22:25.669Z,100911.91
2023-05-06T04:24:52.817Z,100913.56
2023-05-06T04:27:19.963Z,100911.75
2023-05-06T04:29:47.176Z,100915.22
2023-05-06T04:32:14.463Z,100917.22
2023-05-06T04:34:41.966Z,100917.22
2023-05-06T04:37:09.505Z,100918.50
2023-05-06T04:39:39.720Z,100914.88
2023-05-06T04:42:06.937Z,100927.13
2023-05-06T04:44:34.697Z,100923.63
2023-05-06T04:47:01.962Z,100926.66
2023-05-06T04:49:29.160Z,100917.06
2023-05-06T04:51:56.836Z,100923.19
2023-05-06T04:54:24.026Z,100924.47
2023-05-06T04:56:51.778Z,100924.75
2023-05-06T04:59:19.004Z,100927.88
2023-05-06T05:01:46.481Z,100939.94
2023-05-06T05:04:13.767Z,100933.66
2023-05-06T05:06:41.088Z,100937.94
2023-05-06T05:09:08.383Z,100941.88
2023-05-06T05:11:38.533Z,100941.69
2023-05-06T05:14:05.784Z,100944.16
2023-05-06T05:16:33.244Z,100946.66
2023-05-06T05:19:02.931Z,100942.19
2023-05-06T05:21:30.902Z,100943.00
2023-05-06T05:23:58.129Z,100942.47
2023-05-06T05:26:25.344Z,100948.88
2023-05-06T05:28:52.529Z,100955.47
2023-05-06T05:31:19.747Z,100952.28
2023-05-06T05:33:46.972Z,100945.59
2023-05-06T05:36:15.671Z,100951.19
2023-05-06T05:38:42.882Z,100958.97
2023-05-06T05:41:10.175Z,100951.31
2023-05-06T05:43:37.394Z,100956.41
2023-05-06T05:46:05.017Z,100951.59
2023-05-06T05:48:33.172Z,100956.69
2023-05-06T05:51:02.285Z,100965.31
2023-05-06T05:53:29.488Z,100971.06
2023-05-06T05:55:56.755Z,100970.72
2023-05-06T05:58:24.040Z,100956.09
2023-05-06T06:00:51.445Z,100957.38
2023-05-06T06:03:19.306Z,100958.22
2023-05-06T06:05:46.933Z,100964.81
2023-05-06T06:08:14.224Z,100966.13
2023-05-06T06:10:42.304Z,100967.38
2023-05-06T06:13:09.572Z,100966.66
2023-05-06T06:15:36.920Z,100969.22
2023-05-06T06:18:04.334Z,100974.16
2023-05-06T06:20:32.089Z,100967.84
2023-05-06T06:22:59.324Z,100955.22
2023-05-06T06:25:26.535Z,100963.63
2023-05-06T06:27:56.041Z,100966.19
2023-05-06T06:30:23.501Z,100965.28
2023-05-06T06:32:53.246Z,100969.84
2023-05-06T06:35:20.767Z,100967.63
2023-05-06T06:37:48.228Z,100965.63
2023-05-06T06:40:15.971Z,100974.41
2023-05-06T06:42:43.218Z,100968.91
2023-05-06T06:45:11.548Z,100972.22
2023-05-06T06:47:39.201Z,100966.50
2023-05-06T06:50:07.667Z,100975.56
2023-05-06T06:52:35.950Z,100976.41
2023-05-06T06:55:03.750Z,100974.38
2023-05-06T06:57:30.934Z,100974.75
2023-05-06T06:59:58.153Z,100987.59
2023-05-06T07:02:25.801Z,100977.13
2023-05-06T07:04:54.051Z,100978.53
2023-05-06T07:07:21.318Z,100979.72
2023-05-06T07:09:48.523Z,100978.06
2023-05-06T07:12:15.765Z,100977.25
2023-05-06T07:14:42.943Z,100974.22
2023-05-06T07:17:10.300Z,100977.97
2023-05-06T07:19:37.604Z,100973.56
2023-05-06T07:22:04.755Z,100975.91
2023-05-06T07:24:31.943Z,100972.53
2023-05-06T07:26:59.190Z,100979.94
2023-05-06T07:29:26.538Z,100971.97
2023-05-06T07:31:53.778Z,100970.31
2023-05-06T07:34:21.192Z,100973.78
2023-05-06T07:36:48.528Z,100981.56
2023-05-06T07:39:15.733Z,100975.22
2023-05-06T07:41:43.009Z,100976.69
2023-05-06T07:44:10.309Z,100985.28
2023-05-06T07:46:37.848Z,100981.31
2023-05-06T07:49:05.131Z,100985.59
2023-05-06T07:51:32.325Z,100985.41
2023-05-06T07:53:59.574Z,100986.06
2023-05-06T07:56:26.995Z,100984.00
2023-05-06T07:58:54.622Z,100990.97
2023-05-06T08:01:21.803Z,100987.75
2023-05-06T08:03:49.213Z,100988.22
2023-05-06T08:06:16.619Z,100992.75
2023-05-06T08:08:44.051Z,100990.34
2023-05-06T08:11:11.343Z,100987.31
2023-05-06T08:13:39.102Z,100990.59
2023-05-06T08:16:07.150Z,100992.72
2023-05-06T08:18:34.533Z,100990.66
2023-05-06T08:21:02.034Z,100994.16
2023-05-06T08:23:29.360Z,100992.75
2023-05-06T08:25:56.703Z,100998.53
2023-05-06T08:28:25.296Z,101000.94
2023-05-06T08:30:52.858Z,100992.31
2023-05-06T08:33:20.341Z,100997.00
2023-05-06T08:35:48.347Z,100996.56
2023-05-06T08:38:15.586Z,100990.59
2023-05-06T08:40:44.662Z,100997.97
2023-05-06T08:43:14.958Z,100994.66
2023-05-06T08:45:42.914Z,100989.56
2023-05-06T08:48:10.297Z,100988.72
2023-05-06T08:50:42.797Z,100986.91
2023-05-06T08:53:13.840Z,100992.81
2023-05-06T08:55:43.016Z,100992.00
2023-05-06T08:58:14.035Z,100994.28
2023-05-06T09:00:41.501Z,100990.66
2023-05-06T09:03:08.753Z,100992.41
2023-05-06T09:05:36.006Z,100986.28
2023-05-06T09:08:03.762Z,100993.72
2023-05-06T09:10:33.849Z,100991.72
2023-05-06T09:13:01.210Z,100995.06
2023-05-06T09:15:40.090Z,100994.94
2023-05-06T09:18:07.424Z,100994.38
2023-05-06T09:20:35.596Z,100998.03
2023-05-06T09:23:03.415Z,100992.28
2023-05-06T09:25:30.917Z,100993.06
2023-05-06T09:28:04.300Z,100992.59
2023-05-06T09:30:31.540Z,100986.00
2023-05-06T09:32:58.887Z,100990.91
2023-05-06T09:35:30.378Z,100989.25
2023-05-06T09:37:57.619Z,100988.00
2023-05-06T09:40:25.336Z,100991.25
2023-05-06T09:42:52.594Z,100992.00
2023-05-06T09:45:20.136Z,100985.44
2023-05-06T09:47:49.828Z,100988.91
2023-05-06T09:50:17.548Z,100979.94
2023-05-06T09:52:46.787Z,100986.69
2023-05-06T09:55:15.063Z,100985.84
2023-05-06T09:57:43.034Z,100980.53
2023-05-06T10:00:12.656Z,100987.06
2023-05-06T10:02:41.940Z,100980.94
2023-05-06T10:05:10.750Z,100978.44
2023-05-06T10:07:39.876Z,100987.91
2023-05-06T10:10:11.732Z,100981.75
2023-05-06T10:12:39.543Z,100989.09
2023-05-06T10:15:08.800Z,100981.13
2023-05-06T10:17:40.194Z,100986.25
2023-05-06T10:20:12.428Z,100983.19
2023-05-06T10:22:44.542Z,100981.53
2023-05-06T10:25:17.370Z,100979.28
2023-05-06T10:27:45.450Z,100973.78
2023-05-06T10:30:16.152Z,100975.63
2023-05-06T10:32:45.142Z,100977.44
2023-05-06T10:35:21.610Z,100979.09
2023-05-06T10:37:51.224Z,100977.44
2023-05-06T10:40:19.325Z,100972.50
2023-05-06T10:42:46.714Z,100973.72
2023-05-06T10:45:15.742Z,100973.72
2023-05-06T10:47:49.321Z,100971.88
2023-05-06T10:50:22.970Z,100964.34
2023-05-06T10:52:56.290Z,100976.44
2023-05-06T10:55:29.915Z,100965.34
2023-05-06T10:58:03.024Z,100976.81
2023-05-06T11:00:33.045Z,100965.16
2023-05-06T11:03:06.915Z,100970.28
2023-05-06T11:05:40.664Z,100965.81
2023-05-06T11:08:12.249Z,100961.09
2023-05-06T11:10:39.778Z,100958.25
2023-05-06T11:13:17.799Z,100952.13
2023-05-06T11:15:46.861Z,100964.59
2023-05-06T11:18:37.497Z,100956.78
2023-05-06T11:21:08.297Z,100954.53
2023-05-06T11:23:42.409Z,100952.44
2023-05-06T11:26:11.577Z,100949.34
2023-05-06T11:28:40.427Z,100947.47
2023-05-06T11:31:08.878Z,100952.34
2023-05-06T11:33:37.624Z,100951.88
2023-05-06T11:36:05.755Z,100947.13
2023-05-06T11:38:39.253Z,100949.53
2023-05-06T11:41:07.757Z,100947.44
2023-05-06T11:43:35.360Z,100946.38
2023-05-06T11:46:02.953Z,100939.81
2023-05-06T11:48:31.053Z,100951.56
2023-05-06T11:51:01.337Z,100943.59
2023-05-06T11:53:30.420Z,100936.47
2023-05-06T11:55:57.857Z,100934.03
2023-05-06T11:58:27.209Z,100935.03
2023-05-06T12:00:59.916Z,100939.81
2023-05-06T12:03:29.112Z,100937.56
2023-05-06T12:05:57.134Z,100948.47
2023-05-06T12:08:28.608Z,100946.88
2023-05-06T12:11:00.227Z,100940.16
2023-05-06T12:13:28.335Z,100935.50
2023-05-06T12:15:56.918Z,100938.59
2023-05-06T12:18:24.855Z,100934.09
2023-05-06T12:20:55.697Z,100939.84
2023-05-06T12:23:23.751Z,100930.69
2023-05-06T12:25:57.220Z,100928.84
2023-05-06T12:28:24.476Z,100937.00
2023-05-06T12:30:51.826Z,100929.22
2023-05-06T12:33:19.313Z,100938.41
2023-05-06T12:35:46.864Z,100936.56
2023-05-06T12:38:16.134Z,100934.75
2023-05-06T12:40:45.360Z,100933.72
2023-05-06T12:43:12.869Z,100938.22
2023-05-06T12:45:40.894Z,100942.25
2023-05-06T12:48:15.752Z,100948.59
2023-05-06T12:50:45.790Z,100939.34
2023-05-06T12:53:13.870Z,100940.91
2023-05-06T12:55:42.816Z,100945.44
2023-05-06T12:58:16.426Z,100944.78
2023-05-06T13:00:43.814Z,100945.38
2023-05-06T13:03:12.252Z,100946.09
2023-05-06T13:05:39.571Z,100948.09
2023-05-06T13:08:07.054Z,100943.44
2023-05-06T13:10:34.472Z,100940.22
2023-05-06T13:13:01.924Z,100941.88
2023-05-06T13:15:29.336Z,100940.88
2023-05-06T13:17:57.710Z,100946.19
2023-05-06T13:20:26.336Z,100941.50
2023-05-06T13:22:54.832Z,100941.13
2023-05-06T13:25:23.282Z,100938.09
2023-05-06T13:27:50.617Z,100936.06
2023-05-06T13:30:18.108Z,100941.00
2023-05-06T13:32:47.176Z,100937.16
2023-05-06T13:35:14.556Z,100936.75
2023-05-06T13:37:41.818Z,100945.97
2023-05-06T13:40:10.305Z,100943.16
2023-05-06T13:42:39.048Z,100945.41
2023-05-06T13:45:07.647Z,100936.44
2023-05-06T13:47:35.198Z,100938.25
2023-05-06T13:50:04.199Z,100926.19
2023-05-06T13:52:31.706Z,100933.91
2023-05-06T13:54:59.088Z,100931.84
2023-05-06T13:57:26.600Z,100930.53
2023-05-06T13:59:54.059Z,100933.41
2023-05-06T14:02:21.806Z,100932.00
2023-05-06T14:04:49.671Z,100929.75
2023-05-06T14:07:17.175Z,100930.53
2023-05-06T14:09:44.582Z,100918.47
2023-05-06T14:12:12.002Z,100924.63
2023-05-06T14:14:39.298Z,100929.50
2023-05-06T14:17:06.817Z,100918.41
2023-05-06T14:19:34.834Z,100924.94
2023-05-06T14:22:02.528Z,100918.69
2023-05-06T14:24:29.998Z,100918.44
2023-05-06T14:26:57.425Z,100911.03
2023-05-06T14:29:25.038Z,100915.91
2023-05-06T14:31:54.035Z,100916.28
2023-05-06T14:34:21.665Z,100912.19
2023-05-06T14:36:48.917Z,100908.03
2023-05-06T14:39:16.225Z,100909.09
2023-05-06T14:41:43.464Z,100898.63
2023-05-06T14:44:11.059Z,100903.94
2023-05-06T14:46:38.276Z,100898.81
2023-05-06T14:49:05.865Z,100900.22
2023-05-06T14:51:34.900Z,100891.59
2023-05-06T14:54:03.092Z,100897.31
2023-05-06T14:56:30.382Z,100890.97
2023-05-06T14:58:58.041Z,100888.31
2023-05-06T15:01:26.133Z,100885.03
2023-05-06T15:03:53.763Z,100883.59
2023-05-06T15:06:21.229Z,100886.69
2023-05-06T15:08:48.579Z,100880.16
2023-05-06T15:11:15.845Z,100880.63
2023-05-06T15:13:43.461Z,100883.44
2023-05-06T15:16:11.650Z,100889.59
2023-05-06T15:18:42.123Z,100886.28
2023-05-06T15:21:09.544Z,100889.97
2023-05-06T15:23:38.093Z,100878.53
2023-05-06T15:26:06.029Z,100866.88
2023-05-06T15:28:33.709Z,100881.19
2023-05-06T15:31:01.485Z,100871.56
2023-05-06T15:33:28.793Z,100875.06
2023-05-06T15:35:56.319Z,100876.88
2023-05-06T15:38:23.684Z,100876.06
2023-05-06T15:40:52.176Z,100865.25
2023-05-06T15:43:23.751Z,100876.69
2023-05-06T15:45:52.180Z,100872.41
2023-05-06T15:48:22.965Z,100871.56
2023-05-06T15:50:50.562Z,100871.56
2023-05-06T15:53:20.379Z,100875.88
2023-05-06T15:55:56.602Z,100874.84
2023-05-06T15:58:25.827Z,100872.84
2023-05-06T16:00:53.314Z,100880.63
2023-05-06T16:03:20.938Z,100880.63
2023-05-06T16:05:49.068Z,100874.47
2023-05-06T16:08:16.358Z,100871.19
2023-05-06T16:10:43.814Z,100874.31
2023-05-06T16:13:11.641Z,100878.22
2023-05-06T16:15:39.143Z,100883.31
2023-05-06T16:18:07.103Z,100870.59
2023-05-06T16:20:34.953Z,100876.31
2023-05-06T16:23:03.397Z,100870.75
2023-05-06T16:25:31.023Z,100869.09
2023-05-06T16:27:58.513Z,100867.25
2023-05-06T16:30:25.750Z,100866.44
2023-05-06T16:32:53.502Z,100864.78
2023-05-06T16:35:20.920Z,100868.47
2023-05-06T16:37:48.184Z,100867.44
2023-05-06T16:40:21.290Z,100864.78
2023-05-06T16:42:49.709Z,100861.31
2023-05-06T16:45:17.304Z,100865.44
2023-05-06T16:47:45.058Z,100868.53
2023-05-06T16:50:13.065Z,100867.09
2023-05-06T16:52:41.154Z,100857.28
2023-05-06T16:55:09.467Z,100851.75
2023-05-06T16:57:37.036Z,100857.91
2023-05-06T17:00:08.437Z,100857.34
2023-05-06T17:02:36.312Z,100857.34
2023-05-06T17:05:04.595Z,100848.53
2023-05-06T17:07:32.157Z,100860.00
2023-05-06T17:09:59.718Z,100853.66
2023-05-06T17:12:27.307Z,100850.00
2023-05-06T17:14:54.810Z,100851.84
2023-05-06T17:17:25.183Z,100849.00
2023-05-06T17:19:52.623Z,100849.00
2023-05-06T17:22:21.698Z,100856.31
2023-05-06T17:24:50.262Z,100848.53
2023-05-06T17:27:18.869Z,100849.56
2023-05-06T17:29:47.119Z,100844.84
2023-05-06T17:32:14.582Z,100843.81
2023-05-06T17:34:41.876Z,100842.63
2023-05-06T17:37:09.306Z,100841.63
2023-05-06T17:39:38.644Z,100845.88
2023-05-06T17:42:06.043Z,100841.63
2023-05-06T17:44:35.694Z,100843.44
2023-05-06T17:47:03.051Z,100845.28
2023-05-06T17:49:30.592Z,100843.22
2023-05-06T17:51:59.532Z,100846.72
2023-05-06T17:54:32.855Z,100847.53
2023-05-06T17:57:01.247Z,100837.13
2023-05-06T17:59:29.552Z,100837.91
2023-05-06T18:01:57.226Z,100832.59
2023-05-06T18:04:24.545Z,100841.63
2023-05-06T18:06:52.105Z,100835.47
2023-05-06T18:09:19.887Z,100836.09
2023-05-06T18:11:47.256Z,100838.56
2023-05-06T18:14:15.157Z,100839.38
2023-05-06T18:16:42.499Z,100841.22
2023-05-06T18:19:09.863Z,100837.91
2023-05-06T18:21:37.361Z,100838.75
2023-05-06T18:24:15.405Z,100844.69
2023-05-06T18:26:45.693Z,100828.75
2023-05-06T18:29:13.470Z,100834.91
2023-05-06T18:31:40.764Z,100843.47
2023-05-06T18:34:08.206Z,100848.00
2023-05-06T18:36:36.799Z,100847.19
2023-05-06T18:39:05.079Z,100844.53
2023-05-06T18:41:32.441Z,100843.13
2023-05-06T18:43:59.915Z,100843.31
2023-05-06T18:46:27.878Z,100843.69
2023-05-06T18:48:56.519Z,100847.34
2023-05-06T18:51:24.221Z,100849.38
2023-05-06T18:53:51.665Z,100846.91
2023-05-06T18:56:19.014Z,100850.41
2023-05-06T18:58:46.418Z,100854.69
2023-05-06T19:01:13.967Z,100848.53
2023-05-06T19:03:42.760Z,100856.06
2023-05-06T19:06:11.024Z,100851.75
2023-05-06T19:08:39.046Z,100859.72
2023-05-06T19:11:06.568Z,100858.13
2023-05-06T19:13:33.941Z,100858.72
2023-05-06T19:16:01.323Z,100862.03
2023-05-06T19:18:28.567Z,100861.19
2023-05-06T19:20:56.386Z,100856.47
2023-05-06T19:23:23.605Z,100857.47
2023-05-06T19:25:50.848Z,100867.25
2023-05-06T19:28:18.136Z,100855.47
2023-05-06T19:30:45.771Z,100860.38
2023-05-06T19:33:13.269Z,100858.72
2023-05-06T19:35:40.798Z,100861.78
2023-05-06T19:38:09.593Z,100861.31
2023-05-06T19:40:37.286Z,100863.16
2023-05-06T19:43:04.660Z,100853.34
2023-05-06T19:45:33.713Z,100855.19
2023-05-06T19:48:01.947Z,100861.94
2023-05-06T19:50:31.608Z,100866.25
2023-05-06T19:52:58.789Z,100862.59
2023-05-06T19:55:26.404Z,100865.25
2023-05-06T19:57:57.239Z,100871.75
2023-05-06T20:00:25.908Z,100865.63
2023-05-06T20:02:53.281Z,100872.75
2023-05-06T20:05:20.656Z,100866.25
2023-05-06T20:07:47.889Z,100863.78
2023-05-06T20:10:17.200Z,100874.59
2023-05-06T20:12:44.475Z,100873.97
2023-05-06T20:15:12.275Z,100871.50
2023-05-06T20:17:39.938Z,100877.81
2023-05-06T20:20:10.283Z,100869.00
2023-05-06T20:22:39.242Z,100862.91
2023-05-06T20:25:09.778Z,100882.28
2023-05-06T20:27:37.273Z,100880.03
2023-05-06T20:30:06.454Z,100882.03
2023-05-06T20:32:34.407Z,100880.19
2023-05-06T20:35:01.837Z,100885.50
2023-05-06T20:37:30.953Z,100884.16
2023-05-06T20:39:59.055Z,100887.81
2023-05-06T20:42:26.690Z,100887.97
2023-05-06T20:44:54.212Z,100886.34
2023-05-06T20:47:21.648Z,100890.00
2023-05-06T20:49:48.900Z,100901.25
2023-05-06T20:52:16.153Z,100905.38
2023-05-06T20:54:45.403Z,100908.84
2023-05-06T20:57:15.615Z,100903.75
2023-05-06T20:59:43.413Z,100913.34
2023-05-06T21:02:11.330Z,100901.25
2023-05-06T21:04:38.747Z,100913.72
2023-05-06T21:07:06.145Z,100913.72
2023-05-06T21:09:33.601Z,100909.03
2023-05-06T21:12:00.728Z,100919.47
2023-05-06T21:14:28.205Z,100922.31
2023-05-06T21:16:55.646Z,100924.97
2023-05-06T21:19:23.031Z,100925.97
2023-05-06T21:21:50.335Z,100927.16
2023-05-06T21:24:17.612Z,100923.50
2023-05-06T21:26:44.972Z,100923.31
2023-05-06T21:29:12.326Z,100922.50
2023-05-06T21:31:39.958Z,100931.47
2023-05-06T21:34:10.848Z,100924.50
2023-05-06T21:36:38.129Z,100926.53
2023-05-06T21:39:09.103Z,100923.06
2023-05-06T21:41:36.925Z,100921.06
2023-05-06T21:44:06.363Z,100921.84
2023-05-06T21:46:33.767Z,100923.72
2023-05-06T21:49:01.667Z,100918.41
2023-05-06T21:51:30.655Z,100926.97
2023-05-06T21:53:57.928Z,100919.84
2023-05-06T21:56:25.309Z,100916.19
2023-05-06T21:58:53.812Z,100920.28
2023-05-06T22:01:21.225Z,100926.25
2023-05-06T22:03:49.348Z,100928.91
2023-05-06T22:06:16.588Z,100933.56
2023-05-06T22:08:44.106Z,100933.28
2023-05-06T22:11:11.386Z,100934.50
2023-05-06T22:13:39.044Z,100937.34
2023-05-06T22:16:08.187Z,100933.84
2023-05-06T22:18:36.284Z,100936.50
2023-05-06T22:21:03.723Z,100937.50
2023-05-06T22:23:31.084Z,100945.47
2023-05-06T22:25:58.656Z,100940.00
2023-05-06T22:28:27.534Z,100938.34
2023-05-06T22:30:54.738Z,100954.09
2023-05-06T22:33:22.013Z,100952.25
2023-05-06T22:35:49.245Z,100948.41
2023-05-06T22:38:16.465Z,100943.09
2023-05-06T22:40:43.762Z,100947.41
2023-05-06T22:43:10.999Z,100943.09
2023-05-06T22:45:38.424Z,100942.09
2023-05-06T22:48:06.009Z,100943.09
2023-05-06T22:50:33.364Z,100947.59
2023-05-06T22:53:10.295Z,100951.06
2023-05-06T22:55:41.254Z,100945.13
2023-05-06T22:58:08.443Z,100951.81
2023-05-06T23:00:35.667Z,100955.47
2023-05-06T23:03:03.329Z,100951.16
2023-05-06T23:05:30.835Z,100963.25
2023-05-06T23:07:58.015Z,100962.22
2023-05-06T23:10:25.306Z,100960.78
2023-05-06T23:12:52.546Z,100963.78
2023-05-06T23:15:19.766Z,100971.97
2023-05-06T23:17:46.993Z,100968.66
2023-05-06T23:20:14.176Z,100964.19
2023-05-06T23:22:41.398Z,100969.31
2023-05-06T23:25:10.871Z,100972.78
2023-05-06T23:27:39.724Z,100981.09
2023-05-06T23:30:08.825Z,100972.69
2023-05-06T23:32:36.289Z,100966.72
2023-05-06T23:35:05.307Z,100976.16
2023-05-06T23:37:32.551Z,100973.13
2023-05-06T23:39:59.899Z,100968.84
2023-05-06T23:42:27.216Z,100976.00
2023-05-06T23:44:54.385Z,100973.34
2023-05-06T23:47:21.664Z,100976.00
2023-05-06T23:49:48.917Z,100967.22
2023-05-06T23:52:16.089Z,100968.03
2023-05-06T23:54:43.316Z,100978.44
2023-05-06T23:57:10.477Z,100974.78
2023-05-06T23:59:37.648Z,100965.56
